createdAt,value
2022-11-08T00:02:03.852Z,12.15
2022-11-08T00:05:25.965Z,12.02
2022-11-08T00:08:47.320Z,11.75
2022-11-08T00:12:08.989Z,11.23
2022-11-08T00:15:11.593Z,12.55
2022-11-08T00:18:14.726Z,10.95
2022-11-08T00:21:17.415Z,12.18
2022-11-08T00:24:20.407Z,10.98
2022-11-08T00:27:24.773Z,11.73
2022-11-08T00:30:27.774Z,11.50
2022-11-08T00:33:30.576Z,10.98
2022-11-08T00:36:34.557Z,10.38
2022-11-08T00:39:37.284Z,11.20
2022-11-08T00:42:40.312Z,11.05
2022-11-08T00:45:43.073Z,10.80
2022-11-08T00:48:46.074Z,10.75
2022-11-08T00:51:48.791Z,11.38
2022-11-08T00:54:52.003Z,10.85
2022-11-08T00:57:59.436Z,11.05
2022-11-08T01:01:16.931Z,9.73
2022-11-08T01:04:20.533Z,9.85
2022-11-08T01:07:23.527Z,10.50
2022-11-08T01:10:26.227Z,9.43
2022-11-08T01:13:29.883Z,10.68
2022-11-08T01:16:33.974Z,11.20
2022-11-08T01:19:36.867Z,9.70
2022-11-08T01:22:39.589Z,9.85
2022-11-08T01:25:45.533Z,10.05
2022-11-08T01:28:48.897Z,9.38
2022-11-08T01:31:51.881Z,9.13
2022-11-08T01:34:54.568Z,9.30
2022-11-08T01:37:57.507Z,8.23
2022-11-08T01:41:00.258Z,8.93
2022-11-08T01:44:03.272Z,8.30
2022-11-08T01:47:06.193Z,8.88
2022-11-08T01:50:16.761Z,7.25
2022-11-08T01:53:19.841Z,7.85
2022-11-08T01:56:23.198Z,8.00
2022-11-08T01:59:26.561Z,7.85
2022-11-08T02:02:30.552Z,7.90
2022-11-08T02:05:34.378Z,6.87
2022-11-08T02:08:41.170Z,6.95
2022-11-08T02:11:45.509Z,7.43
2022-11-08T02:14:48.237Z,7.37
2022-11-08T02:17:52.261Z,7.12
2022-11-08T02:21:07.037Z,7.43
2022-11-08T02:24:12.239Z,8.20
2022-11-08T02:27:15.210Z,7.12
2022-11-08T02:30:18.153Z,8.15
2022-11-08T02:33:23.148Z,7.35
2022-11-08T02:36:26.086Z,7.55
2022-11-08T02:39:30.133Z,7.30
2022-11-08T02:42:33.057Z,6.80
2022-11-08T02:45:35.845Z,7.80
2022-11-08T02:48:38.785Z,7.32
2022-11-08T02:51:41.415Z,7.20
2022-11-08T02:54:44.314Z,6.95
2022-11-08T02:57:46.960Z,6.62
2022-11-08T03:00:50.264Z,7.35
2022-11-08T03:03:53.046Z,7.57
2022-11-08T03:06:56.014Z,7.35
2022-11-08T03:09:58.724Z,6.43
2022-11-08T03:13:04.054Z,6.62
2022-11-08T03:16:07.090Z,7.68
2022-11-08T03:19:12.082Z,6.30
2022-11-08T03:22:15.720Z,6.95
2022-11-08T03:25:18.783Z,7.07
2022-11-08T03:28:23.349Z,6.70
2022-11-08T03:31:26.591Z,6.90
2022-11-08T03:34:29.285Z,6.60
2022-11-08T03:37:32.309Z,6.15
2022-11-08T03:40:35.512Z,6.75
2022-11-08T03:43:38.586Z,7.10
2022-11-08T03:46:41.352Z,7.00
2022-11-08T03:49:44.273Z,6.72
2022-11-08T03:52:52.006Z,6.62
2022-11-08T03:55:54.957Z,6.68
2022-11-08T03:58:57.605Z,6.75
2022-11-08T04:02:02.779Z,5.82
2022-11-08T04:05:07.880Z,6.57
2022-11-08T04:08:11.205Z,7.12
2022-11-08T04:11:32.997Z,6.53
2022-11-08T04:14:54.263Z,6.50
2022-11-08T04:18:17.267Z,6.70
2022-11-08T04:21:21.815Z,6.90
2022-11-08T04:24:24.952Z,6.22
2022-11-08T04:27:27.554Z,6.40
2022-11-08T04:30:31.471Z,6.07
2022-11-08T04:33:34.814Z,5.93
2022-11-08T04:36:37.895Z,5.68
2022-11-08T04:39:40.570Z,6.65
2022-11-08T04:42:44.961Z,5.97
2022-11-08T04:45:47.606Z,6.07
2022-11-08T04:48:56.247Z,6.62
2022-11-08T04:51:58.805Z,6.78
2022-11-08T04:55:01.760Z,6.22
2022-11-08T04:58:04.384Z,6.35
2022-11-08T05:01:09.714Z,6.72
2022-11-08T05:04:12.425Z,7.03
2022-11-08T05:07:15.527Z,6.40
2022-11-08T05:10:18.489Z,5.80
2022-11-08T05:13:21.426Z,5.90
2022-11-08T05:19:53.765Z,5.43
2022-11-08T05:23:19.575Z,6.03
2022-11-08T05:26:22.766Z,5.35
2022-11-08T05:29:25.373Z,5.78
2022-11-08T05:32:28.457Z,6.03
2022-11-08T05:35:32.937Z,6.37
2022-11-08T05:38:36.365Z,5.15
2022-11-08T05:41:39.174Z,5.72
2022-11-08T05:44:42.185Z,5.45
2022-11-08T05:47:45.875Z,5.00
2022-11-08T05:50:49.443Z,6.97
2022-11-08T05:53:52.393Z,6.32
2022-11-08T05:56:55.350Z,6.47
2022-11-08T05:59:58.018Z,5.90
2022-11-08T06:03:05.726Z,6.28
2022-11-08T06:06:13.940Z,6.75
2022-11-08T06:09:16.610Z,7.37
2022-11-08T06:12:20.646Z,9.90
2022-11-08T06:15:23.310Z,10.43
2022-11-08T06:18:26.212Z,17.77
2022-11-08T06:21:28.890Z,39.85
2022-11-08T06:24:31.812Z,13.77
2022-11-08T06:27:34.753Z,8.45
2022-11-08T06:30:38.023Z,8.65
2022-11-08T06:33:40.764Z,8.45
2022-11-08T06:36:43.712Z,8.52
2022-11-08T06:39:46.408Z,9.18
2022-11-08T06:42:49.476Z,8.98
2022-11-08T06:45:52.010Z,11.32
2022-11-08T06:48:54.971Z,12.40
2022-11-08T06:51:57.595Z,11.30
2022-11-08T06:55:00.549Z,8.85
2022-11-08T06:58:04.348Z,8.70
2022-11-08T07:01:09.388Z,10.68
2022-11-08T07:04:12.124Z,8.15
2022-11-08T07:07:14.946Z,7.57
2022-11-08T07:10:22.314Z,7.75
2022-11-08T07:13:25.292Z,8.43
2022-11-08T07:16:27.977Z,8.20
2022-11-08T07:19:30.821Z,7.87
2022-11-08T07:22:33.433Z,9.07
2022-11-08T07:25:37.291Z,8.82
2022-11-08T07:28:40.204Z,10.18
2022-11-08T07:31:43.182Z,10.48
2022-11-08T07:34:45.845Z,9.70
2022-11-08T07:37:48.893Z,8.48
2022-11-08T07:40:51.648Z,8.48
2022-11-08T07:43:54.444Z,8.43
2022-11-08T07:46:57.027Z,7.82
2022-11-08T07:50:00.470Z,7.70
2022-11-08T07:53:05.329Z,6.35
2022-11-08T07:56:08.217Z,7.03
2022-11-08T07:59:10.923Z,7.03
2022-11-08T08:02:14.856Z,6.82
2022-11-08T08:05:18.256Z,6.90
2022-11-08T08:08:21.361Z,6.68
2022-11-08T08:11:27.189Z,7.12
2022-11-08T08:14:33.700Z,7.62
2022-11-08T08:17:36.545Z,6.82
2022-11-08T08:20:39.335Z,6.72
2022-11-08T08:23:42.253Z,7.68
2022-11-08T08:26:44.880Z,8.57
2022-11-08T08:29:47.774Z,8.57
2022-11-08T08:33:08.439Z,9.27
2022-11-08T08:36:11.688Z,8.98
2022-11-08T08:39:14.468Z,9.30
2022-11-08T08:42:17.396Z,9.52
2022-11-08T09:29:50.484Z,14.63
2022-11-08T09:33:00.692Z,12.43
2022-11-08T09:36:05.443Z,10.70
2022-11-08T09:39:08.499Z,9.27
2022-11-08T09:42:22.285Z,9.95
2022-11-08T09:45:32.057Z,8.55
2022-11-08T09:48:37.600Z,10.57
2022-11-08T09:51:43.113Z,9.70
2022-11-08T09:54:47.540Z,11.32
2022-11-08T09:57:59.602Z,10.75
2022-11-08T10:01:03.268Z,11.18
2022-11-08T10:04:15.163Z,12.73
2022-11-08T10:07:28.479Z,11.50
2022-11-08T10:10:51.428Z,10.63
2022-11-08T10:14:18.001Z,11.05
2022-11-08T10:17:44.825Z,9.70
2022-11-08T10:21:08.195Z,9.60
2022-11-08T10:24:21.573Z,8.85
2022-11-08T10:27:42.868Z,9.20
2022-11-08T10:30:49.691Z,12.05
2022-11-08T10:33:55.163Z,10.52
2022-11-08T10:37:06.625Z,11.30
2022-11-08T10:40:22.525Z,11.07
2022-11-08T10:43:36.405Z,10.63
2022-11-08T10:46:45.017Z,11.85
2022-11-08T10:49:47.953Z,10.95
2022-11-08T10:53:04.643Z,12.75
2022-11-08T10:56:07.624Z,12.52
2022-11-08T10:59:29.961Z,12.57
2022-11-08T11:02:35.554Z,13.35
2022-11-08T11:05:42.605Z,14.57
2022-11-08T11:08:59.662Z,14.38
2022-11-08T11:12:08.627Z,14.48
2022-11-08T11:15:15.702Z,15.52
2022-11-08T11:18:49.279Z,13.13
2022-11-08T11:21:57.330Z,14.02
2022-11-08T11:25:07.570Z,17.58
2022-11-08T11:28:14.171Z,17.67
2022-11-08T11:31:17.085Z,15.25
2022-11-08T11:34:19.878Z,18.85
2022-11-08T11:37:34.257Z,17.45
2022-11-08T11:40:48.454Z,16.60
2022-11-08T11:44:29.759Z,16.45
2022-11-08T11:47:44.181Z,17.67
2022-11-08T11:50:48.999Z,16.17
2022-11-08T11:53:51.959Z,16.35
2022-11-08T11:57:29.074Z,15.15
2022-11-08T12:00:35.613Z,16.85
2022-11-08T12:04:02.579Z,15.30
2022-11-08T12:07:16.892Z,17.02
2022-11-08T12:10:26.163Z,16.42
2022-11-08T12:13:54.668Z,14.48
2022-11-08T12:17:19.895Z,15.37
2022-11-08T12:20:50.894Z,12.65
2022-11-08T12:24:09.152Z,10.90
2022-11-08T12:27:17.768Z,13.65
2022-11-08T12:30:30.260Z,11.40
2022-11-08T12:33:44.309Z,9.90
2022-11-08T12:37:02.433Z,11.15
2022-11-08T12:40:05.427Z,11.18
2022-11-08T12:43:25.789Z,11.15
2022-11-08T12:46:32.660Z,11.35
2022-11-08T12:49:57.326Z,12.00
2022-11-08T12:53:48.594Z,9.48
2022-11-08T12:56:55.430Z,12.43
2022-11-08T13:00:14.410Z,10.23
2022-11-08T13:03:17.362Z,10.20
2022-11-08T13:06:35.243Z,10.00
2022-11-08T13:10:01.120Z,9.15
2022-11-08T13:13:23.059Z,8.85
2022-11-08T13:16:28.570Z,10.27
2022-11-08T13:19:46.583Z,10.63
2022-11-08T13:23:00.757Z,11.77
2022-11-08T13:26:20.648Z,50.72
2022-11-08T13:29:27.446Z,12.85
2022-11-08T13:32:54.226Z,13.05
2022-11-08T13:36:07.398Z,12.65
2022-11-08T13:39:33.335Z,12.70
2022-11-08T13:42:36.194Z,14.57
2022-11-08T13:45:38.873Z,13.15
2022-11-08T13:48:42.705Z,14.68
2022-11-08T13:51:46.284Z,13.73
2022-11-08T13:54:51.964Z,14.00
2022-11-08T13:57:59.003Z,14.27
2022-11-08T14:01:05.122Z,14.35
2022-11-08T14:04:37.222Z,14.57
2022-11-08T14:07:48.750Z,16.20
2022-11-08T14:11:22.731Z,13.60
2022-11-08T14:14:37.286Z,14.23
2022-11-08T14:17:53.920Z,13.75
2022-11-08T14:20:57.445Z,15.63
2022-11-08T14:24:01.816Z,15.55
2022-11-08T14:27:04.591Z,14.70
2022-11-08T14:30:19.218Z,14.00
2022-11-08T14:33:24.721Z,16.70
2022-11-08T14:36:30.404Z,15.10
2022-11-08T14:39:35.564Z,15.45
2022-11-08T14:42:44.456Z,15.15
2022-11-08T14:45:47.622Z,15.63
2022-11-08T14:48:55.673Z,15.50
2022-11-08T14:52:14.654Z,15.32
2022-11-08T14:55:24.087Z,14.80
2022-11-08T14:58:30.081Z,15.97
2022-11-08T15:01:34.987Z,16.83
2022-11-08T15:04:40.609Z,16.77
2022-11-08T15:07:46.696Z,17.33
2022-11-08T15:11:04.866Z,15.90
2022-11-08T15:14:18.650Z,16.10
2022-11-08T15:17:39.911Z,15.95
2022-11-08T15:20:58.290Z,17.42
2022-11-08T15:24:09.684Z,16.17
2022-11-08T15:27:12.676Z,16.00
2022-11-08T15:30:32.988Z,16.83
2022-11-08T15:33:38.682Z,14.50
2022-11-08T15:36:41.559Z,15.90
2022-11-08T15:39:46.079Z,15.45
2022-11-08T15:42:51.671Z,17.45
2022-11-08T15:45:54.955Z,18.48
2022-11-08T15:48:59.039Z,18.20
2022-11-08T15:52:03.696Z,15.90
2022-11-08T15:55:08.006Z,15.98
2022-11-08T15:58:17.125Z,17.10
2022-11-08T16:01:21.031Z,17.47
2022-11-08T16:04:25.080Z,16.60
2022-11-08T16:07:27.995Z,18.98
2022-11-08T16:10:43.845Z,17.20
2022-11-08T16:13:49.048Z,17.73
2022-11-08T16:16:52.360Z,17.73
2022-11-08T16:19:55.264Z,18.17
2022-11-08T16:23:00.972Z,17.08
2022-11-08T16:26:05.853Z,18.10
2022-11-08T16:29:24.679Z,17.87
2022-11-08T16:32:28.014Z,19.20
2022-11-08T16:35:35.206Z,19.10
2022-11-08T16:38:38.548Z,19.98
2022-11-08T16:41:42.854Z,19.27
2022-11-08T16:44:46.266Z,19.58
2022-11-08T16:47:51.773Z,19.48
2022-11-08T16:51:00.579Z,20.35
2022-11-08T16:54:15.334Z,20.83
2022-11-08T16:57:35.493Z,20.02
2022-11-08T17:00:46.548Z,20.25
2022-11-08T17:03:50.506Z,20.10
2022-11-08T17:06:53.664Z,20.35
2022-11-08T17:09:56.649Z,20.40
2022-11-08T17:12:59.868Z,20.00
2022-11-08T17:16:02.771Z,20.75
2022-11-08T17:19:06.742Z,21.25
2022-11-08T17:22:10.041Z,21.30
2022-11-08T17:25:19.096Z,22.50
2022-11-08T17:28:21.971Z,21.35
2022-11-08T17:31:25.136Z,19.98
2022-11-08T17:34:29.595Z,19.62
2022-11-08T17:37:33.753Z,18.33
2022-11-08T17:40:37.012Z,23.38
2022-11-08T17:43:42.208Z,21.87
2022-11-08T17:46:45.072Z,19.75
2022-11-08T17:49:48.757Z,20.00
2022-11-08T17:52:54.294Z,20.88
2022-11-08T17:56:03.269Z,18.42
